sensor_id;sensor_type;location;lat;lon;timestamp;pressure;altitude;pressure_sealevel;temperature;humidity
7940;BME280;4015;48.888;9.226;2022-09-16T00:00:45;159034.63;;;15.09;90.41
7940;BME280;4015;48.888;9.226;2022-09-16T00:03:12;159042.28;;;15.12;89.19
7940;BME280;4015;48.888;9.226;2022-09-16T00:05:46;159044.84;;;15.13;89.01
7940;BME280;4015;48.888;9.226;2022-09-16T00:08:13;159035.91;;;15.09;89.62
7940;BME280;4015;48.888;9.226;2022-09-16T00:10:39;159042.28;;;15.12;88.37
7940;BME280;4015;48.888;9.226;2022-09-16T00:13:05;159052.53;;;15.16;88.88
7940;BME280;4015;48.888;9.226;2022-09-16T00:15:30;159033.34;;;15.08;89.00
7940;BME280;4015;48.888;9.226;2022-09-16T00:17:55;159044.84;;;15.13;89.33
7940;BME280;4015;48.888;9.226;2022-09-16T00:20:21;159016.66;;;15.02;89.08
7940;BME280;4015;48.888;9.226;2022-09-16T00:22:46;159016.66;;;15.02;89.44
7940;BME280;4015;48.888;9.226;2022-09-16T00:25:11;159012.81;;;15.00;89.30
7940;BME280;4015;48.888;9.226;2022-09-16T00:27:37;159023.06;;;15.04;89.17
7940;BME280;4015;48.888;9.226;2022-09-16T00:30:03;159016.66;;;15.02;89.64
7940;BME280;4015;48.888;9.226;2022-09-16T00:32:28;159012.81;;;15.00;89.24
7940;BME280;4015;48.888;9.226;2022-09-16T00:34:54;159001.28;;;14.96;90.06
7940;BME280;4015;48.888;9.226;2022-09-16T00:37:19;159017.97;;;15.02;90.02
7940;BME280;4015;48.888;9.226;2022-09-16T00:39:47;159003.88;;;14.97;90.29
7940;BME280;4015;48.888;9.226;2022-09-16T00:42:13;158989.78;;;14.91;90.25
7940;BME280;4015;48.888;9.226;2022-09-16T00:45:05;158992.34;;;14.92;90.45
7940;BME280;4015;48.888;9.226;2022-09-16T00:47:39;158988.50;;;14.91;90.74
7940;BME280;4015;48.888;9.226;2022-09-16T00:50:12;158987.22;;;14.90;90.59
7940;BME280;4015;48.888;9.226;2022-09-16T00:52:40;158988.50;;;14.91;90.59
7940;BME280;4015;48.888;9.226;2022-09-16T00:55:08;158992.34;;;14.92;90.48
7940;BME280;4015;48.888;9.226;2022-09-16T00:57:35;158987.22;;;14.90;90.22
7940;BME280;4015;48.888;9.226;2022-09-16T01:00:03;158994.88;;;14.93;90.16
7940;BME280;4015;48.888;9.226;2022-09-16T01:02:29;159002.59;;;14.96;90.45
7940;BME280;4015;48.888;9.226;2022-09-16T01:05:00;159010.25;;;14.99;90.61
7940;BME280;4015;48.888;9.226;2022-09-16T01:07:32;159003.88;;;14.97;90.61
7940;BME280;4015;48.888;9.226;2022-09-16T01:09:58;158997.44;;;14.94;91.14
7940;BME280;4015;48.888;9.226;2022-09-16T01:12:26;158989.78;;;14.91;90.54
7940;BME280;4015;48.888;9.226;2022-09-16T01:14:54;158974.41;;;14.85;91.22
7940;BME280;4015;48.888;9.226;2022-09-16T01:31:15;158946.22;;;14.74;92.34
7940;BME280;4015;48.888;9.226;2022-09-16T01:39:41;158906.50;;;14.58;92.72
7940;BME280;4015;48.888;9.226;2022-09-16T01:47:48;158871.88;;;14.44;92.65
7940;BME280;4015;48.888;9.226;2022-09-16T01:50:40;158852.69;;;14.37;92.01
7940;BME280;4015;48.888;9.226;2022-09-16T01:53:26;158823.25;;;14.25;92.57
7940;BME280;4015;48.888;9.226;2022-09-16T01:55:59;158819.41;;;14.23;92.47
7940;BME280;4015;48.888;9.226;2022-09-16T01:58:35;158807.88;;;14.19;93.02
7940;BME280;4015;48.888;9.226;2022-09-16T02:01:08;158781.03;;;14.08;92.11
7940;BME280;4015;48.888;9.226;2022-09-16T02:03:39;158765.66;;;14.02;92.30
7940;BME280;4015;48.888;9.226;2022-09-16T02:06:13;158766.94;;;14.02;92.14
7940;BME280;4015;48.888;9.226;2022-09-16T02:08:59;158759.22;;;13.99;91.57
7940;BME280;4015;48.888;9.226;2022-09-16T02:11:26;158741.31;;;13.92;91.16
7940;BME280;4015;48.888;9.226;2022-09-16T02:14:17;158716.97;;;13.83;92.26
7940;BME280;4015;48.888;9.226;2022-09-16T02:16:57;158708.03;;;13.79;92.43
7940;BME280;4015;48.888;9.226;2022-09-16T02:19:29;158715.69;;;13.82;91.63
7940;BME280;4015;48.888;9.226;2022-09-16T02:21:57;158724.69;;;13.86;91.59
7940;BME280;4015;48.888;9.226;2022-09-16T02:24:28;158720.84;;;13.84;91.39
7940;BME280;4015;48.888;9.226;2022-09-16T02:26:58;158702.94;;;13.77;92.16
7940;BME280;4015;48.888;9.226;2022-09-16T02:29:31;158711.88;;;13.81;91.44
7940;BME280;4015;48.888;9.226;2022-09-16T02:32:02;158705.50;;;13.78;91.37
7940;BME280;4015;48.888;9.226;2022-09-16T02:34:38;158722.13;;;13.85;90.67
7940;BME280;4015;48.888;9.226;2022-09-16T02:37:09;158705.50;;;13.78;90.75
7940;BME280;4015;48.888;9.226;2022-09-16T02:39:39;158704.22;;;13.77;90.74
7940;BME280;4015;48.888;9.226;2022-09-16T02:42:09;158699.06;;;13.75;90.25
7940;BME280;4015;48.888;9.226;2022-09-16T02:44:34;158677.31;;;13.67;90.49
7940;BME280;4015;48.888;9.226;2022-09-16T02:47:09;158676.03;;;13.66;90.85
7940;BME280;4015;48.888;9.226;2022-09-16T02:49:59;158664.50;;;13.62;91.31
7940;BME280;4015;48.888;9.226;2022-09-16T02:52:39;158654.31;;;13.58;91.80
7940;BME280;4015;48.888;9.226;2022-09-16T02:55:28;158650.44;;;13.56;91.81
7940;BME280;4015;48.888;9.226;2022-09-16T02:57:58;158635.06;;;13.50;91.46
7940;BME280;4015;48.888;9.226;2022-09-16T03:00:23;158614.63;;;13.42;92.16
7940;BME280;4015;48.888;9.226;2022-09-16T03:02:50;158610.78;;;13.40;92.81
7940;BME280;4015;48.888;9.226;2022-09-16T03:05:17;158604.34;;;13.38;93.06
7940;BME280;4015;48.888;9.226;2022-09-16T03:07:42;158594.16;;;13.34;93.05
7940;BME280;4015;48.888;9.226;2022-09-16T03:10:09;158586.44;;;13.31;92.81
7940;BME280;4015;48.888;9.226;2022-09-16T03:12:49;158597.97;;;13.35;92.05
7940;BME280;4015;48.888;9.226;2022-09-16T03:21:07;158617.16;;;13.43;92.42
7940;BME280;4015;48.888;9.226;2022-09-16T03:31:50;158679.88;;;13.68;90.63
7940;BME280;4015;48.888;9.226;2022-09-16T03:34:34;158702.94;;;13.77;89.92
7940;BME280;4015;48.888;9.226;2022-09-16T03:37:04;158705.50;;;13.78;88.92
7940;BME280;4015;48.888;9.226;2022-09-16T03:39:32;158719.56;;;13.84;90.26
7940;BME280;4015;48.888;9.226;2022-09-16T03:42:05;158741.31;;;13.92;90.68
7940;BME280;4015;48.888;9.226;2022-09-16T03:44:38;158755.41;;;13.98;89.70
7940;BME280;4015;48.888;9.226;2022-09-16T03:47:05;158745.16;;;13.94;88.49
7940;BME280;4015;48.888;9.226;2022-09-16T03:49:30;158761.78;;;14.00;88.30
7940;BME280;4015;48.888;9.226;2022-09-16T03:51:56;158779.69;;;14.08;88.06
7940;BME280;4015;48.888;9.226;2022-09-16T03:54:22;158811.69;;;14.20;86.33
7940;BME280;4015;48.888;9.226;2022-09-16T03:56:47;158816.84;;;14.22;85.82
7940;BME280;4015;48.888;9.226;2022-09-16T03:59:13;158815.59;;;14.22;86.82
7940;BME280;4015;48.888;9.226;2022-09-16T04:01:38;158805.31;;;14.18;86.65
7940;BME280;4015;48.888;9.226;2022-09-16T04:04:04;158805.31;;;14.18;87.89
7940;BME280;4015;48.888;9.226;2022-09-16T04:06:29;158816.84;;;14.22;88.49
7940;BME280;4015;48.888;9.226;2022-09-16T04:08:54;158811.69;;;14.20;87.29
7940;BME280;4015;48.888;9.226;2022-09-16T04:11:25;158830.94;;;14.28;88.63
7940;BME280;4015;48.888;9.226;2022-09-16T04:13:54;158832.22;;;14.28;89.82
7940;BME280;4015;48.888;9.226;2022-09-16T04:16:19;158813.03;;;14.21;87.20
7940;BME280;4015;48.888;9.226;2022-09-16T04:18:45;158806.59;;;14.18;87.44
7940;BME280;4015;48.888;9.226;2022-09-16T04:21:10;158815.59;;;14.22;88.43
7940;BME280;4015;48.888;9.226;2022-09-16T04:23:36;158810.44;;;14.20;87.09
7940;BME280;4015;48.888;9.226;2022-09-16T04:26:02;158810.44;;;14.20;86.48
7940;BME280;4015;48.888;9.226;2022-09-16T04:28:28;158810.44;;;14.20;87.97
7940;BME280;4015;48.888;9.226;2022-09-16T04:31:01;158825.78;;;14.26;88.47
7940;BME280;4015;48.888;9.226;2022-09-16T04:33:29;158815.59;;;14.22;89.43
7940;BME280;4015;48.888;9.226;2022-09-16T04:36:01;158819.41;;;14.23;90.01
7940;BME280;4015;48.888;9.226;2022-09-16T04:38:27;158833.50;;;14.29;89.80
7940;BME280;4015;48.888;9.226;2022-09-16T04:40:58;158845.03;;;14.34;89.76
7940;BME280;4015;48.888;9.226;2022-09-16T04:43:25;158839.88;;;14.31;89.64
7940;BME280;4015;48.888;9.226;2022-09-16T04:45:50;158845.03;;;14.34;89.63
7940;BME280;4015;48.888;9.226;2022-09-16T04:48:15;158832.22;;;14.28;90.56
7940;BME280;4015;48.888;9.226;2022-09-16T04:50:42;158823.25;;;14.25;91.01
7940;BME280;4015;48.888;9.226;2022-09-16T04:53:07;158825.78;;;14.26;91.42
7940;BME280;4015;48.888;9.226;2022-09-16T04:55:32;158829.66;;;14.27;91.80
7940;BME280;4015;48.888;9.226;2022-09-16T04:57:58;158824.50;;;14.25;91.89
7940;BME280;4015;48.888;9.226;2022-09-16T05:00:24;158839.88;;;14.31;91.18
7940;BME280;4015;48.888;9.226;2022-09-16T05:02:51;158829.66;;;14.27;91.46
7940;BME280;4015;48.888;9.226;2022-09-16T05:05:19;158816.84;;;14.22;92.46
7940;BME280;4015;48.888;9.226;2022-09-16T05:07:44;158792.50;;;14.13;91.25
7940;BME280;4015;48.888;9.226;2022-09-16T05:10:09;158795.06;;;14.14;90.85
7940;BME280;4015;48.888;9.226;2022-09-16T05:12:35;158818.13;;;14.23;88.80
7940;BME280;4015;48.888;9.226;2022-09-16T05:15:00;158825.78;;;14.26;88.00
7940;BME280;4015;48.888;9.226;2022-09-16T05:17:28;158843.75;;;14.33;88.01
7940;BME280;4015;48.888;9.226;2022-09-16T05:19:54;158855.25;;;14.38;88.44
7940;BME280;4015;48.888;9.226;2022-09-16T05:22:19;158824.50;;;14.25;89.44
7940;BME280;4015;48.888;9.226;2022-09-16T05:24:45;158829.66;;;14.27;89.62
7940;BME280;4015;48.888;9.226;2022-09-16T05:27:10;158815.59;;;14.22;91.21
7940;BME280;4015;48.888;9.226;2022-09-16T05:29:35;158823.25;;;14.25;92.10
7940;BME280;4015;48.888;9.226;2022-09-16T05:32:01;158828.41;;;14.27;93.08
7940;BME280;4015;48.888;9.226;2022-09-16T05:34:26;158836.06;;;14.30;93.06
7940;BME280;4015;48.888;9.226;2022-09-16T05:36:53;158837.31;;;14.30;92.77
7940;BME280;4015;48.888;9.226;2022-09-16T05:39:19;158818.13;;;14.23;93.13
7940;BME280;4015;48.888;9.226;2022-09-16T05:41:46;158811.69;;;14.20;92.68
7940;BME280;4015;48.888;9.226;2022-09-16T05:44:11;158830.94;;;14.28;91.30
7940;BME280;4015;48.888;9.226;2022-09-16T05:46:37;158834.78;;;14.29;90.85
7940;BME280;4015;48.888;9.226;2022-09-16T05:49:04;158821.97;;;14.24;91.88
7940;BME280;4015;48.888;9.226;2022-09-16T05:51:30;158827.06;;;14.26;92.04
7940;BME280;4015;48.888;9.226;2022-09-16T05:53:55;158828.41;;;14.27;90.86
7940;BME280;4015;48.888;9.226;2022-09-16T05:56:23;158814.31;;;14.21;90.48
7940;BME280;4015;48.888;9.226;2022-09-16T05:58:51;158833.50;;;14.29;90.32
7940;BME280;4015;48.888;9.226;2022-09-16T06:01:19;158821.97;;;14.24;90.66
7940;BME280;4015;48.888;9.226;2022-09-16T06:03:47;158830.94;;;14.28;90.32
7940;BME280;4015;48.888;9.226;2022-09-16T06:06:28;158856.53;;;14.38;89.28
7940;BME280;4015;48.888;9.226;2022-09-16T06:11:29;158841.16;;;14.32;89.72
7940;BME280;4015;48.888;9.226;2022-09-16T06:13:59;158828.41;;;14.27;91.62
7940;BME280;4015;48.888;9.226;2022-09-16T06:16:26;158832.22;;;14.28;90.64
7940;BME280;4015;48.888;9.226;2022-09-16T06:18:53;158823.25;;;14.25;91.83
7940;BME280;4015;48.888;9.226;2022-09-16T06:21:19;158827.06;;;14.26;92.37
7940;BME280;4015;48.888;9.226;2022-09-16T06:23:44;158829.66;;;14.27;91.91
7940;BME280;4015;48.888;9.226;2022-09-16T06:26:17;158833.50;;;14.29;90.36
7940;BME280;4015;48.888;9.226;2022-09-16T06:28:43;158823.25;;;14.25;90.39
7940;BME280;4015;48.888;9.226;2022-09-16T06:31:28;158819.41;;;14.23;90.62
7940;BME280;4015;48.888;9.226;2022-09-16T06:33:54;158798.94;;;14.15;91.07
7940;BME280;4015;48.888;9.226;2022-09-16T06:36:31;158798.94;;;14.15;92.01
7940;BME280;4015;48.888;9.226;2022-09-16T06:38:57;158792.50;;;14.13;92.76
7940;BME280;4015;48.888;9.226;2022-09-16T06:41:24;158760.50;;;14.00;92.19
7940;BME280;4015;48.888;9.226;2022-09-16T06:43:50;158763.06;;;14.01;91.22
7940;BME280;4015;48.888;9.226;2022-09-16T06:46:34;158766.94;;;14.02;92.32
7940;BME280;4015;48.888;9.226;2022-09-16T06:48:59;158749.03;;;13.95;94.08
7940;BME280;4015;48.888;9.226;2022-09-16T06:51:27;158768.22;;;14.03;94.02
7940;BME280;4015;48.888;9.226;2022-09-16T06:53:54;158749.03;;;13.95;94.36
7940;BME280;4015;48.888;9.226;2022-09-16T06:56:22;158775.88;;;14.06;95.24
7940;BME280;4015;48.888;9.226;2022-09-16T06:58:49;158770.75;;;14.04;95.46
7940;BME280;4015;48.888;9.226;2022-09-16T07:01:22;158759.22;;;13.99;96.76
7940;BME280;4015;48.888;9.226;2022-09-16T07:03:50;158757.97;;;13.99;94.78
7940;BME280;4015;48.888;9.226;2022-09-16T07:06:17;158737.50;;;13.91;93.68
7940;BME280;4015;48.888;9.226;2022-09-16T07:08:43;158775.88;;;14.06;95.14
7940;BME280;4015;48.888;9.226;2022-09-16T07:13:37;158793.78;;;14.13;95.91
7940;BME280;4015;48.888;9.226;2022-09-16T07:16:05;158763.06;;;14.01;96.16
7940;BME280;4015;48.888;9.226;2022-09-16T07:18:31;158770.75;;;14.04;95.92
7940;BME280;4015;48.888;9.226;2022-09-16T07:21:05;158761.78;;;14.00;96.38
7940;BME280;4015;48.888;9.226;2022-09-16T07:23:32;158765.66;;;14.02;95.83
7940;BME280;4015;48.888;9.226;2022-09-16T07:26:11;158783.56;;;14.09;95.98
7940;BME280;4015;48.888;9.226;2022-09-16T07:28:38;158804.03;;;14.17;95.22
7940;BME280;4015;48.888;9.226;2022-09-16T07:31:06;158806.59;;;14.18;95.42
7940;BME280;4015;48.888;9.226;2022-09-16T07:33:36;158809.16;;;14.19;96.28
7940;BME280;4015;48.888;9.226;2022-09-16T07:36:02;158764.34;;;14.01;93.28
7940;BME280;4015;48.888;9.226;2022-09-16T07:38:29;158756.69;;;13.98;93.01
7940;BME280;4015;48.888;9.226;2022-09-16T07:40:55;158765.66;;;14.02;94.11
7940;BME280;4015;48.888;9.226;2022-09-16T07:43:27;158806.59;;;14.18;94.54
7940;BME280;4015;48.888;9.226;2022-09-16T07:45:57;158806.59;;;14.18;94.64
7940;BME280;4015;48.888;9.226;2022-09-16T07:48:22;158793.78;;;14.13;95.31
7940;BME280;4015;48.888;9.226;2022-09-16T07:50:59;158806.59;;;14.18;95.02
7940;BME280;4015;48.888;9.226;2022-09-16T07:53:26;158836.06;;;14.30;94.13
7940;BME280;4015;48.888;9.226;2022-09-16T07:55:53;158860.41;;;14.40;93.91
7940;BME280;4015;48.888;9.226;2022-09-16T07:58:19;158902.69;;;14.56;93.46
7940;BME280;4015;48.888;9.226;2022-09-16T08:00:47;158924.47;;;14.65;93.55
7940;BME280;4015;48.888;9.226;2022-09-16T08:03:12;159020.53;;;15.03;92.98
7940;BME280;4015;48.888;9.226;2022-09-16T08:05:38;159098.66;;;15.34;90.28
7940;BME280;4015;48.888;9.226;2022-09-16T08:08:04;159126.81;;;15.46;89.55
7940;BME280;4015;48.888;9.226;2022-09-16T08:10:29;159115.31;;;15.41;87.34
7940;BME280;4015;48.888;9.226;2022-09-16T08:12:54;159088.41;;;15.30;88.69
7940;BME280;4015;48.888;9.226;2022-09-16T08:15:20;159130.69;;;15.47;88.62
7940;BME280;4015;48.888;9.226;2022-09-16T08:17:45;159146.06;;;15.53;87.11
7940;BME280;4015;48.888;9.226;2022-09-16T08:20:10;159148.63;;;15.54;86.39
7940;BME280;4015;48.888;9.226;2022-09-16T08:22:36;159135.81;;;15.49;88.50
7940;BME280;4015;48.888;9.226;2022-09-16T08:25:01;159156.28;;;15.57;88.82
7940;BME280;4015;48.888;9.226;2022-09-16T08:27:26;159129.41;;;15.47;88.65
7940;BME280;4015;48.888;9.226;2022-09-16T08:29:52;159148.63;;;15.54;89.22
7940;BME280;4015;48.888;9.226;2022-09-16T08:32:17;159158.84;;;15.58;88.64
7940;BME280;4015;48.888;9.226;2022-09-16T08:34:43;159142.19;;;15.52;87.70
7940;BME280;4015;48.888;9.226;2022-09-16T08:37:08;159176.88;;;15.66;87.96
7940;BME280;4015;48.888;9.226;2022-09-16T08:39:33;159225.56;;;15.85;87.86
7940;BME280;4015;48.888;9.226;2022-09-16T08:42:54;159265.28;;;16.01;86.26
7940;BME280;4015;48.888;9.226;2022-09-16T08:44:58;159303.75;;;16.16;86.50
7940;BME280;4015;48.888;9.226;2022-09-16T08:50:20;159438.34;;;16.69;84.58
7940;BME280;4015;48.888;9.226;2022-09-16T08:52:48;159498.66;;;16.93;83.01
7940;BME280;4015;48.888;9.226;2022-09-16T08:55:34;159497.38;;;16.93;83.11
7940;BME280;4015;48.888;9.226;2022-09-16T08:58:15;159510.22;;;16.98;83.96
7940;BME280;4015;48.888;9.226;2022-09-16T09:00:43;159479.44;;;16.86;81.91
7940;BME280;4015;48.888;9.226;2022-09-16T09:03:29;159451.22;;;16.75;82.92
7940;BME280;4015;48.888;9.226;2022-09-16T09:05:58;159438.34;;;16.69;83.95
7940;BME280;4015;48.888;9.226;2022-09-16T09:08:49;159470.44;;;16.82;82.80
7940;BME280;4015;48.888;9.226;2022-09-16T09:11:43;159492.25;;;16.91;82.62
7940;BME280;4015;48.888;9.226;2022-09-16T09:14:40;159452.50;;;16.75;84.36
7940;BME280;4015;48.888;9.226;2022-09-16T09:22:54;159478.16;;;16.85;82.34
7940;BME280;4015;48.888;9.226;2022-09-16T09:30:56;159403.72;;;16.56;82.75
7940;BME280;4015;48.888;9.226;2022-09-16T09:36:17;159443.50;;;16.71;83.88
7940;BME280;4015;48.888;9.226;2022-09-16T09:41:42;159457.59;;;16.77;82.41
7940;BME280;4015;48.888;9.226;2022-09-16T09:47:03;159438.34;;;16.69;83.60
7940;BME280;4015;48.888;9.226;2022-09-16T09:49:39;159461.50;;;16.79;83.64
7940;BME280;4015;48.888;9.226;2022-09-16T09:52:14;159515.31;;;17.00;80.79
7940;BME280;4015;48.888;9.226;2022-09-16T09:54:44;159469.16;;;16.82;81.79
7940;BME280;4015;48.888;9.226;2022-09-16T09:57:33;159498.66;;;16.93;81.52
7940;BME280;4015;48.888;9.226;2022-09-16T10:00:12;159537.09;;;17.09;83.36
7940;BME280;4015;48.888;9.226;2022-09-16T10:02:40;159490.94;;;16.90;83.21
7940;BME280;4015;48.888;9.226;2022-09-16T10:05:25;159479.44;;;16.86;82.83
7940;BME280;4015;48.888;9.226;2022-09-16T10:07:55;159457.59;;;16.77;83.34
7940;BME280;4015;48.888;9.226;2022-09-16T10:10:23;159414.00;;;16.60;84.58
7940;BME280;4015;48.888;9.226;2022-09-16T10:12:49;159357.56;;;16.37;85.05
7940;BME280;4015;48.888;9.226;2022-09-16T10:15:28;159337.06;;;16.29;85.76
7940;BME280;4015;48.888;9.226;2022-09-16T10:17:56;159328.06;;;16.26;86.18
7940;BME280;4015;48.888;9.226;2022-09-16T10:20:27;159329.34;;;16.26;86.50
7940;BME280;4015;48.888;9.226;2022-09-16T10:22:58;159335.78;;;16.29;85.56
7940;BME280;4015;48.888;9.226;2022-09-16T10:25:24;159303.75;;;16.16;84.55
7940;BME280;4015;48.888;9.226;2022-09-16T10:27:55;159253.72;;;15.96;84.67
7940;BME280;4015;48.888;9.226;2022-09-16T10:30:22;159247.34;;;15.94;86.20
7940;BME280;4015;48.888;9.226;2022-09-16T10:33:03;159228.13;;;15.86;85.47
7940;BME280;4015;48.888;9.226;2022-09-16T10:35:32;159222.97;;;15.84;86.93
7940;BME280;4015;48.888;9.226;2022-09-16T10:40:36;159165.28;;;15.61;87.30
7940;BME280;4015;48.888;9.226;2022-09-16T10:43:04;159139.63;;;15.51;88.13
7940;BME280;4015;48.888;9.226;2022-09-16T10:45:44;159153.75;;;15.56;88.82
7940;BME280;4015;48.888;9.226;2022-09-16T10:48:15;159152.47;;;15.56;86.46
7940;BME280;4015;48.888;9.226;2022-09-16T10:51:01;159188.38;;;15.70;84.31
7940;BME280;4015;48.888;9.226;2022-09-16T10:53:35;159230.69;;;15.87;85.72
7940;BME280;4015;48.888;9.226;2022-09-16T10:56:23;159279.38;;;16.06;85.33
7940;BME280;4015;48.888;9.226;2022-09-16T10:59:00;159297.31;;;16.13;84.54
7940;BME280;4015;48.888;9.226;2022-09-16T11:01:41;159303.75;;;16.16;84.93
7940;BME280;4015;48.888;9.226;2022-09-16T11:04:32;159344.75;;;16.32;84.16
7940;BME280;4015;48.888;9.226;2022-09-16T11:10:07;159306.31;;;16.17;84.86
7940;BME280;4015;48.888;9.226;2022-09-16T11:15:14;159239.66;;;15.90;85.15
7940;BME280;4015;48.888;9.226;2022-09-16T11:23:25;159176.88;;;15.66;85.22
7940;BME280;4015;48.888;9.226;2022-09-16T11:26:06;159222.97;;;15.84;86.50
7940;BME280;4015;48.888;9.226;2022-09-16T11:31:28;159173.00;;;15.64;83.60
7940;BME280;4015;48.888;9.226;2022-09-16T11:42:33;159212.75;;;15.80;84.95
7940;BME280;4015;48.888;9.226;2022-09-16T11:48:31;159221.69;;;15.83;82.55
7940;BME280;4015;48.888;9.226;2022-09-16T11:51:08;159284.50;;;16.08;82.91
7940;BME280;4015;48.888;9.226;2022-09-16T11:56:57;159383.22;;;16.48;79.70
7940;BME280;4015;48.888;9.226;2022-09-16T11:59:27;159564.06;;;17.19;77.85
7940;BME280;4015;48.888;9.226;2022-09-16T12:07:38;160123.66;;;19.41;69.21
7940;BME280;4015;48.888;9.226;2022-09-16T12:10:31;160532.31;;;21.04;63.05
7940;BME280;4015;48.888;9.226;2022-09-16T12:13:03;160741.88;;;21.87;61.77
7940;BME280;4015;48.888;9.226;2022-09-16T12:15:35;160344.63;;;20.29;61.70
7940;BME280;4015;48.888;9.226;2022-09-16T12:18:18;160182.81;;;19.65;62.89
7940;BME280;4015;48.888;9.226;2022-09-16T12:20:53;160114.72;;;19.38;64.40
7940;BME280;4015;48.888;9.226;2022-09-16T12:23:23;159818.13;;;18.20;64.69
7940;BME280;4015;48.888;9.226;2022-09-16T12:26:01;159805.28;;;18.15;65.15
7940;BME280;4015;48.888;9.226;2022-09-16T12:31:21;160888.56;;;22.45;59.31
7940;BME280;4015;48.888;9.226;2022-09-16T12:36:30;162339.25;;;28.18;45.43
7940;BME280;4015;48.888;9.226;2022-09-16T12:38:57;162341.81;;;28.19;44.09
7940;BME280;4015;48.888;9.226;2022-09-16T12:49:41;162461.88;;;28.67;42.16
7940;BME280;4015;48.888;9.226;2022-09-16T12:52:21;161662.34;;;25.51;45.50
7940;BME280;4015;48.888;9.226;2022-09-16T12:57:36;161573.47;;;25.16;46.79
7940;BME280;4015;48.888;9.226;2022-09-16T13:02:48;161863.38;;;26.30;46.37
7940;BME280;4015;48.888;9.226;2022-09-16T13:05:23;162264.44;;;27.89;41.98
7940;BME280;4015;48.888;9.226;2022-09-16T13:07:52;162503.13;;;28.83;39.95
7940;BME280;4015;48.888;9.226;2022-09-16T13:10:22;163058.34;;;31.02;37.99
7940;BME280;4015;48.888;9.226;2022-09-16T13:12:53;163156.53;;;31.41;36.33
7940;BME280;4015;48.888;9.226;2022-09-16T13:15:34;162911.09;;;30.44;35.32
7940;BME280;4015;48.888;9.226;2022-09-16T13:18:22;163237.91;;;31.73;35.69
7940;BME280;4015;48.888;9.226;2022-09-16T13:21:17;163570.13;;;33.04;35.52
7940;BME280;4015;48.888;9.226;2022-09-16T13:23:50;163222.41;;;31.67;35.44
7940;BME280;4015;48.888;9.226;2022-09-16T13:26:17;163018.34;;;30.86;35.18
7940;BME280;4015;48.888;9.226;2022-09-16T13:28:44;163407.25;;;32.40;35.44
7940;BME280;4015;48.888;9.226;2022-09-16T13:36:12;163243.09;;;31.75;35.93
7940;BME280;4015;48.888;9.226;2022-09-16T13:38:44;163268.97;;;31.85;36.23
7940;BME280;4015;48.888;9.226;2022-09-16T13:41:12;162337.97;;;28.18;39.99
7940;BME280;4015;48.888;9.226;2022-09-16T13:46:33;163009.28;;;30.83;37.22
7940;BME280;4015;48.888;9.226;2022-09-16T13:51:40;161530.91;;;24.99;44.45
7940;BME280;4015;48.888;9.226;2022-09-16T14:07:50;160954.16;;;22.71;51.17
7940;BME280;4015;48.888;9.226;2022-09-16T14:13:12;161395.75;;;24.45;45.57
7940;BME280;4015;48.888;9.226;2022-09-16T14:15:42;161742.25;;;25.82;44.92
7940;BME280;4015;48.888;9.226;2022-09-16T14:18:12;162295.41;;;28.01;41.73
7940;BME280;4015;48.888;9.226;2022-09-16T14:20:54;162576.72;;;29.12;38.76
7940;BME280;4015;48.888;9.226;2022-09-16T14:23:23;162796.19;;;29.99;37.67
7940;BME280;4015;48.888;9.226;2022-09-16T14:25:48;162389.59;;;28.38;40.26
7940;BME280;4015;48.888;9.226;2022-09-16T14:28:25;161547.72;;;25.06;44.12
7940;BME280;4015;48.888;9.226;2022-09-16T14:30:57;161004.38;;;22.91;48.09
7940;BME280;4015;48.888;9.226;2022-09-16T14:33:51;160837.09;;;22.24;49.70
7940;BME280;4015;48.888;9.226;2022-09-16T14:36:30;161071.28;;;23.17;49.97
7940;BME280;4015;48.888;9.226;2022-09-16T14:38:59;161769.31;;;25.93;44.07
7940;BME280;4015;48.888;9.226;2022-09-16T14:41:32;162077.41;;;27.15;40.69
7940;BME280;4015;48.888;9.226;2022-09-16T14:44:21;162394.75;;;28.40;40.90
7940;BME280;4015;48.888;9.226;2022-09-16T14:46:54;162014.22;;;26.90;41.75
7940;BME280;4015;48.888;9.226;2022-09-16T14:49:21;161730.69;;;25.78;43.48
7940;BME280;4015;48.888;9.226;2022-09-16T14:51:49;161398.31;;;24.46;46.56
7940;BME280;4015;48.888;9.226;2022-09-16T14:54:17;161066.13;;;23.15;47.56
7940;BME280;4015;48.888;9.226;2022-09-16T14:57:06;160583.69;;;21.24;51.02
7940;BME280;4015;48.888;9.226;2022-09-16T14:59:39;160460.38;;;20.75;51.75
7940;BME280;4015;48.888;9.226;2022-09-16T15:05:17;160244.47;;;19.89;55.71
7940;BME280;4015;48.888;9.226;2022-09-16T15:07:45;160160.94;;;19.56;58.68
7940;BME280;4015;48.888;9.226;2022-09-16T15:10:21;160081.31;;;19.25;62.26
7940;BME280;4015;48.888;9.226;2022-09-16T15:12:57;160127.56;;;19.43;60.95
7940;BME280;4015;48.888;9.226;2022-09-16T15:15:27;160171.22;;;19.60;62.09
7940;BME280;4015;48.888;9.226;2022-09-16T15:17:56;160130.13;;;19.44;62.59
7940;BME280;4015;48.888;9.226;2022-09-16T15:20:25;160108.25;;;19.35;61.24
7940;BME280;4015;48.888;9.226;2022-09-16T15:22:52;159994.00;;;18.90;60.72
7940;BME280;4015;48.888;9.226;2022-09-16T15:25:26;159951.66;;;18.73;64.24
7940;BME280;4015;48.888;9.226;2022-09-16T15:28:13;160128.84;;;19.44;62.05
7940;BME280;4015;48.888;9.226;2022-09-16T15:30:53;160008.13;;;18.96;62.37
7940;BME280;4015;48.888;9.226;2022-09-16T15:33:33;160001.72;;;18.93;65.08
7940;BME280;4015;48.888;9.226;2022-09-16T15:36:02;159934.94;;;18.67;65.07
7940;BME280;4015;48.888;9.226;2022-09-16T15:38:29;159895.13;;;18.51;65.42
7940;BME280;4015;48.888;9.226;2022-09-16T15:41:09;159783.47;;;18.06;64.26
7940;BME280;4015;48.888;9.226;2022-09-16T15:43:41;159779.63;;;18.05;64.40
7940;BME280;4015;48.888;9.226;2022-09-16T15:46:18;159851.47;;;18.33;63.54
7940;BME280;4015;48.888;9.226;2022-09-16T15:48:49;160135.25;;;19.46;60.76
7940;BME280;4015;48.888;9.226;2022-09-16T15:53:55;160105.69;;;19.34;62.29
7940;BME280;4015;48.888;9.226;2022-09-16T15:56:31;160104.41;;;19.34;64.12
7940;BME280;4015;48.888;9.226;2022-09-16T15:59:02;160003.00;;;18.94;65.70
7940;BME280;4015;48.888;9.226;2022-09-16T16:03:56;159823.22;;;18.22;66.05
7940;BME280;4015;48.888;9.226;2022-09-16T16:06:51;159769.34;;;18.01;64.80
7940;BME280;4015;48.888;9.226;2022-09-16T16:12:04;159580.72;;;17.26;63.52